sensor_id;sensor_type;location;lat;lon;timestamp;temperature;humidity
66568;DHT22;53422;49.296;6.900;2022-11-20T00:02:19;8.60;99.90
66568;DHT22;53422;49.296;6.900;2022-11-20T00:04:44;8.60;99.90
66568;DHT22;53422;49.296;6.900;2022-11-20T00:07:10;8.60;99.90
66568;DHT22;53422;49.296;6.900;2022-11-20T00:09:35;8.60;99.90
66568;DHT22;53422;49.296;6.900;2022-11-20T00:12:01;8.60;99.90
66568;DHT22;53422;49.296;6.900;2022-11-20T00:14:26;8.60;99.90
66568;DHT22;53422;49.296;6.900;2022-11-20T00:16:52;8.60;99.90
66568;DHT22;53422;49.296;6.900;2022-11-20T00:19:18;8.60;99.90
66568;DHT22;53422;49.296;6.900;2022-11-20T00:21:43;8.60;99.90
66568;DHT22;53422;49.296;6.900;2022-11-20T00:24:09;8.50;99.90
66568;DHT22;53422;49.296;6.900;2022-11-20T00:26:35;8.50;99.90
66568;DHT22;53422;49.296;6.900;2022-11-20T00:29:01;8.50;99.90
66568;DHT22;53422;49.296;6.900;2022-11-20T00:31:28;8.50;99.90
66568;DHT22;53422;49.296;6.900;2022-11-20T00:33:54;8.50;99.90
66568;DHT22;53422;49.296;6.900;2022-11-20T00:36:21;8.40;99.90
66568;DHT22;53422;49.296;6.900;2022-11-20T00:38:51;8.40;99.90
66568;DHT22;53422;49.296;6.900;2022-11-20T00:41:17;8.50;99.90
66568;DHT22;53422;49.296;6.900;2022-11-20T00:43:43;8.40;99.90
66568;DHT22;53422;49.296;6.900;2022-11-20T00:46:20;8.50;99.90
66568;DHT22;53422;49.296;6.900;2022-11-20T00:48:46;8.50;99.90
66568;DHT22;53422;49.296;6.900;2022-11-20T00:51:17;8.50;99.90
66568;DHT22;53422;49.296;6.900;2022-11-20T00:53:43;8.50;99.90
66568;DHT22;53422;49.296;6.900;2022-11-20T00:56:11;8.50;99.90
66568;DHT22;53422;49.296;6.900;2022-11-20T00:58:39;8.50;99.90
66568;DHT22;53422;49.296;6.900;2022-11-20T01:01:31;8.50;99.90
66568;DHT22;53422;49.296;6.900;2022-11-20T01:03:59;8.50;99.90
66568;DHT22;53422;49.296;6.900;2022-11-20T01:06:27;8.50;99.90
66568;DHT22;53422;49.296;6.900;2022-11-20T01:08:55;8.50;99.90
66568;DHT22;53422;49.296;6.900;2022-11-20T01:11:22;8.50;99.90
66568;DHT22;53422;49.296;6.900;2022-11-20T01:13:49;8.50;99.90
66568;DHT22;53422;49.296;6.900;2022-11-20T01:18:47;8.50;99.90
66568;DHT22;53422;49.296;6.900;2022-11-20T01:21:19;8.50;99.90
66568;DHT22;53422;49.296;6.900;2022-11-20T01:23:45;8.50;99.90
66568;DHT22;53422;49.296;6.900;2022-11-20T01:26:17;8.50;99.90
66568;DHT22;53422;49.296;6.900;2022-11-20T01:28:43;8.50;99.90
66568;DHT22;53422;49.296;6.900;2022-11-20T01:31:16;8.50;99.90
66568;DHT22;53422;49.296;6.900;2022-11-20T01:33:43;8.50;99.90
66568;DHT22;53422;49.296;6.900;2022-11-20T01:36:10;8.50;99.90
66568;DHT22;53422;49.296;6.900;2022-11-20T01:38:36;8.50;99.90
66568;DHT22;53422;49.296;6.900;2022-11-20T01:41:02;8.50;99.90
66568;DHT22;53422;49.296;6.900;2022-11-20T01:43:28;8.50;99.90
66568;DHT22;53422;49.296;6.900;2022-11-20T01:51:43;8.50;99.90
66568;DHT22;53422;49.296;6.900;2022-11-20T01:54:15;8.50;99.90
66568;DHT22;53422;49.296;6.900;2022-11-20T01:56:44;8.50;99.90
66568;DHT22;53422;49.296;6.900;2022-11-20T01:59:11;8.50;99.90
66568;DHT22;53422;49.296;6.900;2022-11-20T02:01:38;8.50;99.90
66568;DHT22;53422;49.296;6.900;2022-11-20T02:04:05;8.50;99.90
66568;DHT22;53422;49.296;6.900;2022-11-20T02:06:38;8.50;99.90
66568;DHT22;53422;49.296;6.900;2022-11-20T02:09:06;8.50;99.90
66568;DHT22;53422;49.296;6.900;2022-11-20T02:11:31;8.50;99.90
66568;DHT22;53422;49.296;6.900;2022-11-20T02:13:58;8.50;99.90
66568;DHT22;53422;49.296;6.900;2022-11-20T02:16:27;8.50;99.90
66568;DHT22;53422;49.296;6.900;2022-11-20T02:18:55;8.40;99.90
66568;DHT22;53422;49.296;6.900;2022-11-20T02:21:43;8.50;99.90
66568;DHT22;53422;49.296;6.900;2022-11-20T02:24:13;8.40;99.90
66568;DHT22;53422;49.296;6.900;2022-11-20T02:26:47;8.50;99.90
66568;DHT22;53422;49.296;6.900;2022-11-20T02:29:17;8.40;99.90
66568;DHT22;53422;49.296;6.900;2022-11-20T02:31:45;8.40;99.90
66568;DHT22;53422;49.296;6.900;2022-11-20T02:34:10;8.40;99.90
66568;DHT22;53422;49.296;6.900;2022-11-20T02:36:39;8.40;99.90
66568;DHT22;53422;49.296;6.900;2022-11-20T02:39:05;8.40;99.90
66568;DHT22;53422;49.296;6.900;2022-11-20T02:41:37;8.40;99.90
66568;DHT22;53422;49.296;6.900;2022-11-20T02:44:04;8.40;99.90
66568;DHT22;53422;49.296;6.900;2022-11-20T02:46:31;8.40;99.90
66568;DHT22;53422;49.296;6.900;2022-11-20T02:48:56;8.40;99.90
66568;DHT22;53422;49.296;6.900;2022-11-20T02:51:23;8.40;99.90
66568;DHT22;53422;49.296;6.900;2022-11-20T02:53:49;8.40;99.90
66568;DHT22;53422;49.296;6.900;2022-11-20T02:56:14;8.40;99.90
66568;DHT22;53422;49.296;6.900;2022-11-20T02:58:40;8.40;99.90
66568;DHT22;53422;49.296;6.900;2022-11-20T03:01:06;8.40;99.90
66568;DHT22;53422;49.296;6.900;2022-11-20T03:03:31;8.40;99.90
66568;DHT22;53422;49.296;6.900;2022-11-20T03:05:59;8.40;99.90
66568;DHT22;53422;49.296;6.900;2022-11-20T03:08:25;8.40;99.90
66568;DHT22;53422;49.296;6.900;2022-11-20T03:10:50;8.40;99.90
66568;DHT22;53422;49.296;6.900;2022-11-20T03:13:16;8.40;99.90
66568;DHT22;53422;49.296;6.900;2022-11-20T03:15:41;8.40;99.90
66568;DHT22;53422;49.296;6.900;2022-11-20T03:18:07;8.40;99.90
66568;DHT22;53422;49.296;6.900;2022-11-20T03:20:33;8.40;99.90
66568;DHT22;53422;49.296;6.900;2022-11-20T03:22:59;8.40;99.90
66568;DHT22;53422;49.296;6.900;2022-11-20T03:25:25;8.40;99.90
66568;DHT22;53422;49.296;6.900;2022-11-20T03:27:51;8.40;99.90
66568;DHT22;53422;49.296;6.900;2022-11-20T03:30:17;8.40;99.90
66568;DHT22;53422;49.296;6.900;2022-11-20T03:32:43;8.40;99.90
66568;DHT22;53422;49.296;6.900;2022-11-20T03:35:09;8.40;99.90
66568;DHT22;53422;49.296;6.900;2022-11-20T03:37:35;8.40;99.90
66568;DHT22;53422;49.296;6.900;2022-11-20T03:40:00;8.40;99.90
66568;DHT22;53422;49.296;6.900;2022-11-20T03:42:26;8.40;99.90
66568;DHT22;53422;49.296;6.900;2022-11-20T03:45:10;8.40;99.90
66568;DHT22;53422;49.296;6.900;2022-11-20T03:47:36;8.40;99.90
66568;DHT22;53422;49.296;6.900;2022-11-20T03:50:02;8.40;99.90
66568;DHT22;53422;49.296;6.900;2022-11-20T03:52:27;8.40;99.90
66568;DHT22;53422;49.296;6.900;2022-11-20T03:54:53;8.40;99.90
66568;DHT22;53422;49.296;6.900;2022-11-20T03:57:19;8.40;99.90
66568;DHT22;53422;49.296;6.900;2022-11-20T03:59:44;8.40;99.90
66568;DHT22;53422;49.296;6.900;2022-11-20T04:02:10;8.40;99.90
66568;DHT22;53422;49.296;6.900;2022-11-20T04:04:35;8.40;99.90
66568;DHT22;53422;49.296;6.900;2022-11-20T04:07:01;8.40;99.90
66568;DHT22;53422;49.296;6.900;2022-11-20T04:09:27;8.40;99.90
66568;DHT22;53422;49.296;6.900;2022-11-20T04:11:52;8.40;99.90
66568;DHT22;53422;49.296;6.900;2022-11-20T04:14:18;8.40;99.90
66568;DHT22;53422;49.296;6.900;2022-11-20T04:16:43;8.40;99.90
66568;DHT22;53422;49.296;6.900;2022-11-20T04:19:11;8.40;99.90
66568;DHT22;53422;49.296;6.900;2022-11-20T04:21:37;8.40;99.90
66568;DHT22;53422;49.296;6.900;2022-11-20T04:24:03;8.40;99.90
66568;DHT22;53422;49.296;6.900;2022-11-20T04:26:30;8.40;99.90
66568;DHT22;53422;49.296;6.900;2022-11-20T04:28:57;8.40;99.90
66568;DHT22;53422;49.296;6.900;2022-11-20T04:31:26;8.40;99.90
66568;DHT22;53422;49.296;6.900;2022-11-20T04:33:52;8.40;99.90
66568;DHT22;53422;49.296;6.900;2022-11-20T04:36:23;8.40;99.90
66568;DHT22;53422;49.296;6.900;2022-11-20T04:39:00;8.40;99.90
66568;DHT22;53422;49.296;6.900;2022-11-20T04:41:29;8.40;99.90
66568;DHT22;53422;49.296;6.900;2022-11-20T04:43:57;8.40;99.90
66568;DHT22;53422;49.296;6.900;2022-11-20T04:46:29;8.40;99.90
66568;DHT22;53422;49.296;6.900;2022-11-20T04:48:56;8.40;99.90
66568;DHT22;53422;49.296;6.900;2022-11-20T04:51:22;8.40;99.90
66568;DHT22;53422;49.296;6.900;2022-11-20T04:53:48;8.40;99.90
66568;DHT22;53422;49.296;6.900;2022-11-20T04:56:13;8.40;99.90
66568;DHT22;53422;49.296;6.900;2022-11-20T04:58:39;8.40;99.90
66568;DHT22;53422;49.296;6.900;2022-11-20T05:01:06;8.40;99.90
66568;DHT22;53422;49.296;6.900;2022-11-20T05:03:32;8.40;99.90
66568;DHT22;53422;49.296;6.900;2022-11-20T05:06:02;8.40;99.90
66568;DHT22;53422;49.296;6.900;2022-11-20T05:08:29;8.40;99.90
66568;DHT22;53422;49.296;6.900;2022-11-20T05:11:00;8.40;99.90
66568;DHT22;53422;49.296;6.900;2022-11-20T05:13:27;8.40;99.90
66568;DHT22;53422;49.296;6.900;2022-11-20T05:15:52;8.40;99.90
66568;DHT22;53422;49.296;6.900;2022-11-20T05:18:18;8.40;99.90
66568;DHT22;53422;49.296;6.900;2022-11-20T05:20:43;8.40;99.90
66568;DHT22;53422;49.296;6.900;2022-11-20T05:23:09;8.40;99.90
66568;DHT22;53422;49.296;6.900;2022-11-20T05:25:34;8.40;99.90
66568;DHT22;53422;49.296;6.900;2022-11-20T05:28:00;8.40;99.90
66568;DHT22;53422;49.296;6.900;2022-11-20T05:30:26;8.40;99.90
66568;DHT22;53422;49.296;6.900;2022-11-20T05:32:51;8.40;99.90
66568;DHT22;53422;49.296;6.900;2022-11-20T05:35:17;8.40;99.90
66568;DHT22;53422;49.296;6.900;2022-11-20T05:37:42;8.40;99.90
66568;DHT22;53422;49.296;6.900;2022-11-20T05:40:08;8.40;99.90
66568;DHT22;53422;49.296;6.900;2022-11-20T05:42:34;8.40;99.90
66568;DHT22;53422;49.296;6.900;2022-11-20T05:45:02;8.40;99.90
66568;DHT22;53422;49.296;6.900;2022-11-20T05:47:31;8.40;99.90
66568;DHT22;53422;49.296;6.900;2022-11-20T05:49:57;8.50;99.90
66568;DHT22;53422;49.296;6.900;2022-11-20T05:52:23;8.40;99.90
66568;DHT22;53422;49.296;6.900;2022-11-20T05:54:49;8.40;99.90
66568;DHT22;53422;49.296;6.900;2022-11-20T05:57:15;8.40;99.90
66568;DHT22;53422;49.296;6.900;2022-11-20T05:59:40;8.40;99.90
66568;DHT22;53422;49.296;6.900;2022-11-20T06:02:06;8.40;99.90
66568;DHT22;53422;49.296;6.900;2022-11-20T06:04:32;8.40;99.90
66568;DHT22;53422;49.296;6.900;2022-11-20T06:06:57;8.40;99.90
66568;DHT22;53422;49.296;6.900;2022-11-20T06:09:23;8.40;99.90
66568;DHT22;53422;49.296;6.900;2022-11-20T06:11:48;8.40;99.90
66568;DHT22;53422;49.296;6.900;2022-11-20T06:14:14;8.40;99.90
66568;DHT22;53422;49.296;6.900;2022-11-20T06:16:39;8.40;99.90
66568;DHT22;53422;49.296;6.900;2022-11-20T06:19:05;8.40;99.90
66568;DHT22;53422;49.296;6.900;2022-11-20T06:21:30;8.40;99.90
66568;DHT22;53422;49.296;6.900;2022-11-20T06:23:56;8.40;99.90
66568;DHT22;53422;49.296;6.900;2022-11-20T06:26:23;8.40;99.90
66568;DHT22;53422;49.296;6.900;2022-11-20T06:28:50;8.50;99.90
66568;DHT22;53422;49.296;6.900;2022-11-20T06:31:19;8.40;99.90
66568;DHT22;53422;49.296;6.900;2022-11-20T06:33:45;8.40;99.90
66568;DHT22;53422;49.296;6.900;2022-11-20T06:36:12;8.50;99.90
66568;DHT22;53422;49.296;6.900;2022-11-20T06:38:39;8.40;99.90
66568;DHT22;53422;49.296;6.900;2022-11-20T06:41:11;8.50;99.90
66568;DHT22;53422;49.296;6.900;2022-11-20T06:43:37;8.50;99.90
66568;DHT22;53422;49.296;6.900;2022-11-20T06:46:03;8.50;99.90
66568;DHT22;53422;49.296;6.900;2022-11-20T06:48:29;8.50;99.90
66568;DHT22;53422;49.296;6.900;2022-11-20T06:50:55;8.40;99.90
66568;DHT22;53422;49.296;6.900;2022-11-20T06:53:22;8.40;99.90
66568;DHT22;53422;49.296;6.900;2022-11-20T06:55:48;8.40;99.90
66568;DHT22;53422;49.296;6.900;2022-11-20T06:58:14;8.40;99.90
66568;DHT22;53422;49.296;6.900;2022-11-20T07:00:40;8.40;99.90
66568;DHT22;53422;49.296;6.900;2022-11-20T07:03:07;8.40;99.90
66568;DHT22;53422;49.296;6.900;2022-11-20T07:05:34;8.40;99.90
66568;DHT22;53422;49.296;6.900;2022-11-20T07:08:00;8.40;99.90
66568;DHT22;53422;49.296;6.900;2022-11-20T07:10:26;8.40;99.90
66568;DHT22;53422;49.296;6.900;2022-11-20T07:12:52;8.40;99.90
66568;DHT22;53422;49.296;6.900;2022-11-20T07:15:19;8.40;99.90
66568;DHT22;53422;49.296;6.900;2022-11-20T07:17:45;8.40;99.90
66568;DHT22;53422;49.296;6.900;2022-11-20T07:20:11;8.40;99.90
66568;DHT22;53422;49.296;6.900;2022-11-20T07:22:37;8.40;99.90
66568;DHT22;53422;49.296;6.900;2022-11-20T07:25:03;8.40;99.90
66568;DHT22;53422;49.296;6.900;2022-11-20T07:27:29;8.40;99.90
66568;DHT22;53422;49.296;6.900;2022-11-20T07:29:55;8.40;99.90
66568;DHT22;53422;49.296;6.900;2022-11-20T07:32:20;8.40;99.90
66568;DHT22;53422;49.296;6.900;2022-11-20T07:34:46;8.40;99.90
66568;DHT22;53422;49.296;6.900;2022-11-20T07:37:12;8.40;99.90
66568;DHT22;53422;49.296;6.900;2022-11-20T07:39:38;8.40;99.90
66568;DHT22;53422;49.296;6.900;2022-11-20T07:42:03;8.40;99.90
66568;DHT22;53422;49.296;6.900;2022-11-20T07:44:30;8.40;99.90
66568;DHT22;53422;49.296;6.900;2022-11-20T07:46:56;8.40;99.90
66568;DHT22;53422;49.296;6.900;2022-11-20T07:49:21;8.40;99.90
66568;DHT22;53422;49.296;6.900;2022-11-20T07:51:50;8.40;99.90
66568;DHT22;53422;49.296;6.900;2022-11-20T07:54:16;8.40;99.90
66568;DHT22;53422;49.296;6.900;2022-11-20T07:56:42;8.40;99.90
66568;DHT22;53422;49.296;6.900;2022-11-20T07:59:07;8.40;99.90
66568;DHT22;53422;49.296;6.900;2022-11-20T08:01:33;8.40;99.90
66568;DHT22;53422;49.296;6.900;2022-11-20T08:03:58;8.40;99.90
66568;DHT22;53422;49.296;6.900;2022-11-20T08:06:24;8.40;99.90
66568;DHT22;53422;49.296;6.900;2022-11-20T08:08:50;8.40;99.90
66568;DHT22;53422;49.296;6.900;2022-11-20T08:11:16;8.40;99.90
66568;DHT22;53422;49.296;6.900;2022-11-20T08:14:00;8.40;99.90
66568;DHT22;53422;49.296;6.900;2022-11-20T08:16:46;8.40;99.90
66568;DHT22;53422;49.296;6.900;2022-11-20T08:19:13;8.40;99.90
66568;DHT22;53422;49.296;6.900;2022-11-20T08:21:40;8.40;99.90
66568;DHT22;53422;49.296;6.900;2022-11-20T08:24:06;8.40;99.90
66568;DHT22;53422;49.296;6.900;2022-11-20T08:26:32;8.40;99.90
66568;DHT22;53422;49.296;6.900;2022-11-20T08:28:58;8.40;99.90
66568;DHT22;53422;49.296;6.900;2022-11-20T08:31:25;8.40;99.90
66568;DHT22;53422;49.296;6.900;2022-11-20T08:33:51;8.40;99.90
66568;DHT22;53422;49.296;6.900;2022-11-20T08:36:18;8.40;99.90
66568;DHT22;53422;49.296;6.900;2022-11-20T08:38:48;8.40;99.90
66568;DHT22;53422;49.296;6.900;2022-11-20T08:41:14;8.40;99.90
66568;DHT22;53422;49.296;6.900;2022-11-20T08:43:49;8.40;99.90
66568;DHT22;53422;49.296;6.900;2022-11-20T08:46:15;8.40;99.90
66568;DHT22;53422;49.296;6.900;2022-11-20T08:48:41;8.50;99.90
66568;DHT22;53422;49.296;6.900;2022-11-20T08:51:07;8.40;99.90
66568;DHT22;53422;49.296;6.900;2022-11-20T08:53:32;8.40;99.90
66568;DHT22;53422;49.296;6.900;2022-11-20T08:55:58;8.40;99.90
66568;DHT22;53422;49.296;6.900;2022-11-20T08:58:24;8.40;99.90
66568;DHT22;53422;49.296;6.900;2022-11-20T09:00:50;8.40;99.90
66568;DHT22;53422;49.296;6.900;2022-11-20T09:03:16;8.40;99.90
66568;DHT22;53422;49.296;6.900;2022-11-20T09:05:41;8.40;99.90
66568;DHT22;53422;49.296;6.900;2022-11-20T09:08:08;8.40;99.90
66568;DHT22;53422;49.296;6.900;2022-11-20T09:10:33;8.40;99.90
66568;DHT22;53422;49.296;6.900;2022-11-20T09:12:59;8.50;99.90
66568;DHT22;53422;49.296;6.900;2022-11-20T09:15:25;8.40;99.90
66568;DHT22;53422;49.296;6.900;2022-11-20T09:17:56;8.40;99.90
66568;DHT22;53422;49.296;6.900;2022-11-20T09:20:22;8.50;99.90
66568;DHT22;53422;49.296;6.900;2022-11-20T09:22:48;8.50;99.90
66568;DHT22;53422;49.296;6.900;2022-11-20T09:25:13;8.50;99.90
66568;DHT22;53422;49.296;6.900;2022-11-20T09:27:39;8.50;99.90
66568;DHT22;53422;49.296;6.900;2022-11-20T09:30:07;8.50;99.90
66568;DHT22;53422;49.296;6.900;2022-11-20T09:32:32;8.50;99.90
66568;DHT22;53422;49.296;6.900;2022-11-20T09:34:59;8.50;99.90
66568;DHT22;53422;49.296;6.900;2022-11-20T09:37:24;8.50;99.90
66568;DHT22;53422;49.296;6.900;2022-11-20T09:39:50;8.50;99.90
66568;DHT22;53422;49.296;6.900;2022-11-20T09:42:38;8.50;99.90
66568;DHT22;53422;49.296;6.900;2022-11-20T09:45:28;8.50;99.90
66568;DHT22;53422;49.296;6.900;2022-11-20T09:51:02;8.50;99.90
66568;DHT22;53422;49.296;6.900;2022-11-20T09:54:13;8.60;99.90
66568;DHT22;53422;49.296;6.900;2022-11-20T09:56:44;8.60;99.90
66568;DHT22;53422;49.296;6.900;2022-11-20T09:59:28;8.60;99.90
66568;DHT22;53422;49.296;6.900;2022-11-20T10:01:55;8.60;99.90
66568;DHT22;53422;49.296;6.900;2022-11-20T10:04:22;8.60;99.90
66568;DHT22;53422;49.296;6.900;2022-11-20T10:07:22;8.60;99.90
66568;DHT22;53422;49.296;6.900;2022-11-20T10:09:55;8.60;99.90
66568;DHT22;53422;49.296;6.900;2022-11-20T10:12:45;8.70;99.90
66568;DHT22;53422;49.296;6.900;2022-11-20T10:15:33;8.70;99.90
66568;DHT22;53422;49.296;6.900;2022-11-20T10:18:21;8.70;99.90
66568;DHT22;53422;49.296;6.900;2022-11-20T10:24:17;8.70;99.90
66568;DHT22;53422;49.296;6.900;2022-11-20T10:29:34;8.70;99.90
66568;DHT22;53422;49.296;6.900;2022-11-20T10:32:04;8.70;99.90
66568;DHT22;53422;49.296;6.900;2022-11-20T10:37:17;8.70;99.90
66568;DHT22;53422;49.296;6.900;2022-11-20T10:42:37;8.80;99.90
66568;DHT22;53422;49.296;6.900;2022-11-20T10:47:45;8.80;99.90
66568;DHT22;53422;49.296;6.900;2022-11-20T10:50:14;8.80;99.90
66568;DHT22;53422;49.296;6.900;2022-11-20T10:53:05;8.80;99.90
66568;DHT22;53422;49.296;6.900;2022-11-20T10:55:47;8.90;99.90
66568;DHT22;53422;49.296;6.900;2022-11-20T10:58:40;8.80;99.90
66568;DHT22;53422;49.296;6.900;2022-11-20T11:01:19;8.90;99.90
66568;DHT22;53422;49.296;6.900;2022-11-20T11:03:48;8.90;99.90
66568;DHT22;53422;49.296;6.900;2022-11-20T11:06:33;9.00;99.90
66568;DHT22;53422;49.296;6.900;2022-11-20T11:09:08;8.90;99.90
66568;DHT22;53422;49.296;6.900;2022-11-20T11:11:34;8.90;99.90
66568;DHT22;53422;49.296;6.900;2022-11-20T11:14:08;9.00;99.90
66568;DHT22;53422;49.296;6.900;2022-11-20T11:16:34;9.00;99.90
66568;DHT22;53422;49.296;6.900;2022-11-20T11:19:13;9.00;99.90
66568;DHT22;53422;49.296;6.900;2022-11-20T11:21:49;9.00;99.90
66568;DHT22;53422;49.296;6.900;2022-11-20T11:24:29;9.00;99.90
66568;DHT22;53422;49.296;6.900;2022-11-20T11:26:58;9.00;99.90
66568;DHT22;53422;49.296;6.900;2022-11-20T11:29:24;9.00;99.90
66568;DHT22;53422;49.296;6.900;2022-11-20T11:32:13;9.10;99.90
66568;DHT22;53422;49.296;6.900;2022-11-20T11:34:39;9.10;99.90
66568;DHT22;53422;49.296;6.900;2022-11-20T11:37:05;9.00;99.90
66568;DHT22;53422;49.296;6.900;2022-11-20T11:39:40;9.00;99.90
66568;DHT22;53422;49.296;6.900;2022-11-20T11:42:11;9.00;99.90
66568;DHT22;53422;49.296;6.900;2022-11-20T11:44:44;9.00;99.90
66568;DHT22;53422;49.296;6.900;2022-11-20T11:55:21;9.10;99.90
66568;DHT22;53422;49.296;6.900;2022-11-20T12:00:23;9.10;99.90
66568;DHT22;53422;49.296;6.900;2022-11-20T12:03:12;9.10;99.90
66568;DHT22;53422;49.296;6.900;2022-11-20T12:05:51;9.10;99.90
66568;DHT22;53422;49.296;6.900;2022-11-20T12:13:37;9.10;99.90
66568;DHT22;53422;49.296;6.900;2022-11-20T12:16:05;9.10;99.90
66568;DHT22;53422;49.296;6.900;2022-11-20T12:18:34;9.10;99.90
66568;DHT22;53422;49.296;6.900;2022-11-20T12:23:51;9.10;99.90
66568;DHT22;53422;49.296;6.900;2022-11-20T12:29:22;9.20;99.90
66568;DHT22;53422;49.296;6.900;2022-11-20T12:37:20;9.20;99.90
66568;DHT22;53422;49.296;6.900;2022-11-20T12:45:54;9.20;99.90
66568;DHT22;53422;49.296;6.900;2022-11-20T12:51:37;9.20;99.90
66568;DHT22;53422;49.296;6.900;2022-11-20T12:54:39;8.90;99.90
66568;DHT22;53422;49.296;6.900;2022-11-20T13:00:09;8.90;99.90
66568;DHT22;53422;49.296;6.900;2022-11-20T13:03:20;8.90;99.90
66568;DHT22;53422;49.296;6.900;2022-11-20T13:08:28;8.80;99.90
66568;DHT22;53422;49.296;6.900;2022-11-20T13:11:00;8.90;99.90
66568;DHT22;53422;49.296;6.900;2022-11-20T13:16:37;8.90;99.90
66568;DHT22;53422;49.296;6.900;2022-11-20T13:19:05;8.90;99.90
66568;DHT22;53422;49.296;6.900;2022-11-20T13:21:40;8.90;99.90
66568;DHT22;53422;49.296;6.900;2022-11-20T13:26:45;8.90;99.90
66568;DHT22;53422;49.296;6.900;2022-11-20T13:29:19;8.90;99.90
66568;DHT22;53422;49.296;6.900;2022-11-20T13:31:48;8.90;99.90
66568;DHT22;53422;49.296;6.900;2022-11-20T13:34:25;8.80;99.90
66568;DHT22;53422;49.296;6.900;2022-11-20T13:36:53;8.80;99.90
66568;DHT22;53422;49.296;6.900;2022-11-20T13:39:31;8.70;99.90
66568;DHT22;53422;49.296;6.900;2022-11-20T13:42:03;8.70;99.90
66568;DHT22;53422;49.296;6.900;2022-11-20T13:48:22;8.70;99.90
66568;DHT22;53422;49.296;6.900;2022-11-20T13:53:51;8.90;99.90
66568;DHT22;53422;49.296;6.900;2022-11-20T14:01:56;9.00;99.90
66568;DHT22;53422;49.296;6.900;2022-11-20T14:04:44;9.00;99.90
66568;DHT22;53422;49.296;6.900;2022-11-20T14:07:10;9.00;99.90
66568;DHT22;53422;49.296;6.900;2022-11-20T14:09:36;9.00;99.90
66568;DHT22;53422;49.296;6.900;2022-11-20T14:12:03;9.00;99.90
66568;DHT22;53422;49.296;6.900;2022-11-20T14:14:32;9.10;99.90
66568;DHT22;53422;49.296;6.900;2022-11-20T14:17:06;9.10;99.90
66568;DHT22;53422;49.296;6.900;2022-11-20T14:19:33;9.10;99.90
66568;DHT22;53422;49.296;6.900;2022-11-20T14:22:31;9.00;99.90
66568;DHT22;53422;49.296;6.900;2022-11-20T14:27:41;9.00;99.90
66568;DHT22;53422;49.296;6.900;2022-11-20T14:30:14;9.00;99.90
66568;DHT22;53422;49.296;6.900;2022-11-20T14:32:42;9.00;99.90
66568;DHT22;53422;49.296;6.900;2022-11-20T14:35:10;9.00;99.90
66568;DHT22;53422;49.296;6.900;2022-11-20T14:37:39;9.00;99.90
66568;DHT22;53422;49.296;6.900;2022-11-20T14:42:48;9.00;99.90
66568;DHT22;53422;49.296;6.900;2022-11-20T14:45:13;9.10;99.90
66568;DHT22;53422;49.296;6.900;2022-11-20T14:47:40;9.10;99.90
66568;DHT22;53422;49.296;6.900;2022-11-20T14:50:16;9.00;99.90
66568;DHT22;53422;49.296;6.900;2022-11-20T14:52:53;9.10;99.90
66568;DHT22;53422;49.296;6.900;2022-11-20T14:55:30;9.00;99.90
66568;DHT22;53422;49.296;6.900;2022-11-20T15:00:31;9.00;99.90
66568;DHT22;53422;49.296;6.900;2022-11-20T15:02:57;8.90;99.90
66568;DHT22;53422;49.296;6.900;2022-11-20T15:05:43;8.90;99.90
66568;DHT22;53422;49.296;6.900;2022-11-20T15:08:10;8.90;99.90
66568;DHT22;53422;49.296;6.900;2022-11-20T15:10:36;9.00;99.90
66568;DHT22;53422;49.296;6.900;2022-11-20T15:13:06;9.00;99.90
66568;DHT22;53422;49.296;6.900;2022-11-20T15:18:13;9.00;99.90
66568;DHT22;53422;49.296;6.900;2022-11-20T15:20:39;8.90;99.90
66568;DHT22;53422;49.296;6.900;2022-11-20T15:23:11;8.90;99.90
66568;DHT22;53422;49.296;6.900;2022-11-20T15:25:39;8.90;99.90
66568;DHT22;53422;49.296;6.900;2022-11-20T15:28:13;8.90;99.90
66568;DHT22;53422;49.296;6.900;2022-11-20T15:30:40;8.90;99.90
66568;DHT22;53422;49.296;6.900;2022-11-20T15:33:08;8.80;99.90
66568;DHT22;53422;49.296;6.900;2022-11-20T15:35:34;8.70;99.90
66568;DHT22;53422;49.296;6.900;2022-11-20T15:38:00;8.70;99.90
66568;DHT22;53422;49.296;6.900;2022-11-20T15:40:26;8.70;99.90
66568;DHT22;53422;49.296;6.900;2022-11-20T15:42:51;8.70;99.90
66568;DHT22;53422;49.296;6.900;2022-11-20T15:45:36;8.70;99.90
66568;DHT22;53422;49.296;6.900;2022-11-20T15:48:03;8.70;99.90
66568;DHT22;53422;49.296;6.900;2022-11-20T15:50:37;8.60;99.90
66568;DHT22;53422;49.296;6.900;2022-11-20T15:53:02;8.50;99.90
66568;DHT22;53422;49.296;6.900;2022-11-20T15:55:28;8.60;99.90
66568;DHT22;53422;49.296;6.900;2022-11-20T15:57:54;8.60;99.90
66568;DHT22;53422;49.296;6.900;2022-11-20T16:00:19;8.60;99.90
66568;DHT22;53422;49.296;6.900;2022-11-20T16:02:45;8.60;99.90
66568;DHT22;53422;49.296;6.900;2022-11-20T16:05:11;8.60;99.90
66568;DHT22;53422;49.296;6.900;2022-11-20T16:07:37;8.60;99.90
66568;DHT22;53422;49.296;6.900;2022-11-20T16:10:03;8.50;99.90
66568;DHT22;53422;49.296;6.900;2022-11-20T16:12:29;8.50;99.90
66568;DHT22;53422;49.296;6.900;2022-11-20T16:15:13;8.40;99.90
66568;DHT22;53422;49.296;6.900;2022-11-20T16:17:57;8.40;99.90
66568;DHT22;53422;49.296;6.900;2022-11-20T16:20:23;8.50;99.90
66568;DHT22;53422;49.296;6.900;2022-11-20T16:22:48;8.50;99.90
66568;DHT22;53422;49.296;6.900;2022-11-20T16:25:15;8.50;99.90
66568;DHT22;53422;49.296;6.900;2022-11-20T16:27:41;8.50;99.90
66568;DHT22;53422;49.296;6.900;2022-11-20T16:30:07;8.40;99.90
66568;DHT22;53422;49.296;6.900;2022-11-20T16:32:33;8.40;99.90
66568;DHT22;53422;49.296;6.900;2022-11-20T16:34:58;8.40;99.90
66568;DHT22;53422;49.296;6.900;2022-11-20T16:37:24;8.40;99.90
66568;DHT22;53422;49.296;6.900;2022-11-20T16:39:49;8.30;99.90
66568;DHT22;53422;49.296;6.900;2022-11-20T16:42:15;8.30;99.90
66568;DHT22;53422;49.296;6.900;2022-11-20T16:44:40;8.40;99.90
66568;DHT22;53422;49.296;6.900;2022-11-20T16:47:06;8.30;99.90
66568;DHT22;53422;49.296;6.900;2022-11-20T16:49:32;8.30;99.90
66568;DHT22;53422;49.296;6.900;2022-11-20T16:51:58;8.20;99.90
66568;DHT22;53422;49.296;6.900;2022-11-20T16:54:24;8.10;99.90
66568;DHT22;53422;49.296;6.900;2022-11-20T16:56:49;8.00;99.90
66568;DHT22;53422;49.296;6.900;2022-11-20T16:59:17;8.10;99.90
66568;DHT22;53422;49.296;6.900;2022-11-20T17:01:43;8.10;99.90
66568;DHT22;53422;49.296;6.900;2022-11-20T17:04:08;8.10;99.90
66568;DHT22;53422;49.296;6.900;2022-11-20T17:06:36;8.10;99.90
66568;DHT22;53422;49.296;6.900;2022-11-20T17:09:03;8.20;99.90
66568;DHT22;53422;49.296;6.900;2022-11-20T17:11:29;8.10;99.90
66568;DHT22;53422;49.296;6.900;2022-11-20T17:13:56;8.10;99.90
66568;DHT22;53422;49.296;6.900;2022-11-20T17:16:23;8.10;99.90
66568;DHT22;53422;49.296;6.900;2022-11-20T17:18:49;8.00;99.90
66568;DHT22;53422;49.296;6.900;2022-11-20T17:21:16;8.10;99.90
66568;DHT22;53422;49.296;6.900;2022-11-20T17:23:43;8.10;99.90
66568;DHT22;53422;49.296;6.900;2022-11-20T17:26:20;8.00;99.90
66568;DHT22;53422;49.296;6.900;2022-11-20T17:28:52;8.00;99.90
66568;DHT22;53422;49.296;6.900;2022-11-20T17:31:18;7.90;99.90
66568;DHT22;53422;49.296;6.900;2022-11-20T17:33:45;7.90;99.90